Time;durP1;ratioP1;P1;durP2;ratioP2;P2;SDS_P1;SDS_P2;PMS_P1;PMS_P2;Temp;Humidity;BMP_temperature;BMP_pressure;BME280_temperature;BME280_humidity;BME280_pressure;Samples;Min_cycle;Max_cycle;Signal;HPM_P1;HPM_P2
2022/03/29 00:00:40;;;;;;;28.97;15.47;;;;;;;;;;5032625;28;20462;-48
2022/03/29 00:03:07;;;;;;;24.33;14.03;;;;;;;;;;5033442;28;20509;-48
2022/03/29 00:05:33;;;;;;;21.90;13.87;;;;;;;;;;5033450;28;20942;-48
2022/03/29 00:07:59;;;;;;;23.80;14.30;;;;;;;;;;5033566;28;20761;-48
2022/03/29 00:10:25;;;;;;;27.20;15.33;;;;;;;;;;5033305;28;20418;-48
2022/03/29 00:12:53;;;;;;;29.93;15.80;;;;;;;;;;5033157;28;20998;-48
2022/03/29 00:15:20;;;;;;;32.87;14.80;;;;;;;;;;5033168;28;20414;-49
2022/03/29 00:17:47;;;;;;;25.80;15.60;;;;;;;;;;5032917;28;20419;-47
2022/03/29 00:20:13;;;;;;;25.50;14.83;;;;;;;;;;5021578;28;20411;-47
2022/03/29 00:22:39;;;;;;;25.13;15.43;;;;;;;;;;5015261;28;21060;-47
2022/03/29 00:25:06;;;;;;;23.50;15.90;;;;;;;;;;5032242;28;20422;-47
2022/03/29 00:27:34;;;;;;;23.83;16.20;;;;;;;;;;5032889;28;20875;-47
2022/03/29 00:30:00;;;;;;;34.47;17.83;;;;;;;;;;5028601;28;20417;-49
2022/03/29 00:32:26;;;;;;;30.93;16.07;;;;;;;;;;5032156;28;20434;-48
2022/03/29 00:34:52;;;;;;;24.47;15.20;;;;;;;;;;5032919;28;20990;-47
2022/03/29 00:37:18;;;;;;;24.80;15.70;;;;;;;;;;5029622;28;20425;-47
2022/03/29 00:39:44;;;;;;;31.20;16.47;;;;;;;;;;5032477;28;20766;-46
2022/03/29 00:42:10;;;;;;;24.90;15.03;;;;;;;;;;5032218;28;20524;-47
2022/03/29 00:44:38;;;;;;;24.13;15.67;;;;;;;;;;5032682;28;20416;-48
2022/03/29 00:47:04;;;;;;;26.73;15.47;;;;;;;;;;5032646;28;20824;-47
2022/03/29 00:49:30;;;;;;;29.33;15.20;;;;;;;;;;5032331;28;20917;-46
2022/03/29 00:51:59;;;;;;;25.90;15.57;;;;;;;;;;5032641;28;20491;-47
2022/03/29 00:54:26;;;;;;;26.20;16.00;;;;;;;;;;5032586;28;20781;-46
2022/03/29 00:56:52;;;;;;;33.13;16.73;;;;;;;;;;5032091;28;20645;-46
2022/03/29 00:59:18;;;;;;;29.33;17.07;;;;;;;;;;5032594;28;20405;-48
2022/03/29 01:01:45;;;;;;;27.20;15.30;;;;;;;;;;5031438;28;20465;-49
2022/03/29 01:04:14;;;;;;;28.13;15.60;;;;;;;;;;5032065;28;20468;-48
2022/03/29 01:06:41;;;;;;;26.47;16.67;;;;;;;;;;5031937;28;20418;-47
2022/03/29 01:09:07;;;;;;;21.80;14.60;;;;;;;;;;5032074;28;20421;-47
2022/03/29 01:11:33;;;;;;;25.90;15.80;;;;;;;;;;5030992;28;20418;-48
2022/03/29 01:14:00;;;;;;;22.40;15.20;;;;;;;;;;5032369;28;20426;-49
2022/03/29 01:19:12;;;;;;;28.87;15.97;;;;;;;;;;5031599;28;20429;-47
2022/03/29 01:21:40;;;;;;;26.27;17.50;;;;;;;;;;5031450;28;20456;-46
2022/03/29 01:24:06;;;;;;;21.00;15.10;;;;;;;;;;5032244;28;20937;-46
2022/03/29 01:26:33;;;;;;;32.00;17.50;;;;;;;;;;5032151;28;20411;-48
2022/03/29 01:29:01;;;;;;;32.37;16.00;;;;;;;;;;5031691;28;20418;-47
2022/03/29 01:31:28;;;;;;;28.67;17.17;;;;;;;;;;5031239;28;20462;-47
2022/03/29 01:33:54;;;;;;;26.80;15.43;;;;;;;;;;5031749;28;20946;-47
2022/03/29 01:36:20;;;;;;;34.30;17.13;;;;;;;;;;5032044;28;20425;-47
2022/03/29 01:38:46;;;;;;;27.70;17.87;;;;;;;;;;5031657;28;20933;-46
2022/03/29 01:41:12;;;;;;;30.20;17.83;;;;;;;;;;5031281;28;20493;-47
2022/03/29 01:43:38;;;;;;;32.40;19.47;;;;;;;;;;5031223;28;20469;-47
2022/03/29 01:46:07;;;;;;;32.93;18.97;;;;;;;;;;5031821;28;20410;-47
2022/03/29 01:48:34;;;;;;;26.57;16.77;;;;;;;;;;5031555;28;20410;-48
2022/03/29 01:51:00;;;;;;;29.20;16.93;;;;;;;;;;5031436;28;20450;-49
2022/03/29 01:53:27;;;;;;;36.60;21.63;;;;;;;;;;5031517;28;21037;-46
2022/03/29 01:55:56;;;;;;;37.90;17.30;;;;;;;;;;5031665;28;20414;-47
2022/03/29 01:58:23;;;;;;;32.10;18.83;;;;;;;;;;5031691;28;20408;-47
2022/03/29 02:00:52;;;;;;;34.50;18.00;;;;;;;;;;5031368;28;20461;-47
2022/03/29 02:03:18;;;;;;;28.30;17.47;;;;;;;;;;5031360;28;20414;-47
2022/03/29 02:05:44;;;;;;;23.10;16.40;;;;;;;;;;5030332;28;20408;-47
2022/03/29 02:08:11;;;;;;;27.70;18.47;;;;;;;;;;5031697;28;20402;-47
2022/03/29 02:10:37;;;;;;;31.30;19.20;;;;;;;;;;5031348;28;20902;-46
2022/03/29 02:13:03;;;;;;;27.53;16.87;;;;;;;;;;5031577;28;20427;-47
2022/03/29 02:15:29;;;;;;;26.47;16.30;;;;;;;;;;5031904;28;20414;-46
2022/03/29 02:17:55;;;;;;;26.57;16.07;;;;;;;;;;5031674;28;20409;-47
2022/03/29 02:20:22;;;;;;;29.00;17.47;;;;;;;;;;5031322;28;20407;-47
2022/03/29 02:22:48;;;;;;;29.63;18.83;;;;;;;;;;5032015;28;20790;-48
2022/03/29 02:25:14;;;;;;;28.83;17.67;;;;;;;;;;5035623;28;20394;-47
2022/03/29 02:27:41;;;;;;;31.20;20.90;;;;;;;;;;5035543;28;20898;-47
2022/03/29 02:30:08;;;;;;;31.07;19.50;;;;;;;;;;5035137;28;20396;-47
2022/03/29 02:32:34;;;;;;;31.10;19.60;;;;;;;;;;5035394;28;20424;-48
2022/03/29 02:35:00;;;;;;;29.80;19.57;;;;;;;;;;5035611;28;20709;-46
2022/03/29 02:37:27;;;;;;;31.80;19.87;;;;;;;;;;5035379;28;20485;-46
2022/03/29 02:42:57;;;;;;;33.07;20.67;;;;;;;;;;5034971;28;20466;-46
2022/03/29 02:45:24;;;;;;;29.37;18.90;;;;;;;;;;5035191;28;20442;-46
2022/03/29 02:47:51;;;;;;;38.13;20.83;;;;;;;;;;5035233;28;20401;-47
2022/03/29 02:50:17;;;;;;;32.40;20.70;;;;;;;;;;5035112;28;20430;-46
2022/03/29 02:52:51;;;;;;;33.73;21.83;;;;;;;;;;5034861;28;20422;-45
2022/03/29 02:55:18;;;;;;;36.07;21.73;;;;;;;;;;5035147;28;20411;-48
2022/03/29 02:57:44;;;;;;;40.03;20.47;;;;;;;;;;5034941;28;20434;-48
2022/03/29 03:00:15;;;;;;;31.83;20.13;;;;;;;;;;5034780;28;20439;-49
2022/03/29 03:02:41;;;;;;;34.10;21.77;;;;;;;;;;5034992;28;20795;-47
2022/03/29 03:05:08;;;;;;;33.60;22.13;;;;;;;;;;5035047;28;20408;-46
2022/03/29 03:07:34;;;;;;;41.60;22.00;;;;;;;;;;5034950;28;21161;-46
2022/03/29 03:10:00;;;;;;;38.80;21.20;;;;;;;;;;5034557;28;20442;-46
2022/03/29 03:12:26;;;;;;;38.27;21.90;;;;;;;;;;5034800;28;20434;-46
2022/03/29 03:14:52;;;;;;;40.70;20.50;;;;;;;;;;5034991;28;20768;-46
2022/03/29 03:17:18;;;;;;;36.47;22.20;;;;;;;;;;5034737;28;20533;-46
2022/03/29 03:19:44;;;;;;;43.70;21.10;;;;;;;;;;5034456;28;20440;-45
2022/03/29 03:22:11;;;;;;;37.20;22.77;;;;;;;;;;5034499;28;20462;-45
2022/03/29 03:24:37;;;;;;;33.03;21.70;;;;;;;;;;5034473;28;20915;-45
2022/03/29 03:27:03;;;;;;;39.00;22.53;;;;;;;;;;5034492;28;20481;-46
2022/03/29 03:29:29;;;;;;;42.90;23.53;;;;;;;;;;5034264;28;20780;-46
2022/03/29 03:31:55;;;;;;;42.00;22.90;;;;;;;;;;5034344;28;20435;-45
2022/03/29 03:34:21;;;;;;;41.00;23.10;;;;;;;;;;5033798;28;20420;-46
2022/03/29 03:36:47;;;;;;;42.33;22.50;;;;;;;;;;5034248;28;20505;-45
2022/03/29 03:39:13;;;;;;;43.80;25.07;;;;;;;;;;5034064;28;20443;-47
2022/03/29 03:41:40;;;;;;;38.63;23.53;;;;;;;;;;5033968;28;20490;-47
2022/03/29 03:44:06;;;;;;;38.80;22.57;;;;;;;;;;5034452;28;20400;-45
2022/03/29 03:46:32;;;;;;;42.17;24.87;;;;;;;;;;5034258;28;20413;-45
2022/03/29 03:48:58;;;;;;;38.43;24.70;;;;;;;;;;5034168;28;20507;-46
2022/03/29 03:51:24;;;;;;;36.50;24.30;;;;;;;;;;5033943;28;20814;-48
2022/03/29 03:53:50;;;;;;;36.50;23.47;;;;;;;;;;5033812;28;20814;-49
2022/03/29 03:56:16;;;;;;;40.00;24.13;;;;;;;;;;5033996;28;20441;-50
2022/03/29 03:58:42;;;;;;;36.47;22.33;;;;;;;;;;5033939;28;20442;-46
2022/03/29 04:01:11;;;;;;;38.57;24.53;;;;;;;;;;5033617;28;20444;-46
2022/03/29 04:03:37;;;;;;;46.43;23.50;;;;;;;;;;5033768;28;20439;-45
2022/03/29 04:06:04;;;;;;;44.10;24.43;;;;;;;;;;5033801;28;20875;-45
2022/03/29 04:08:30;;;;;;;44.53;25.80;;;;;;;;;;5033667;28;20433;-46
2022/03/29 04:10:56;;;;;;;43.00;26.23;;;;;;;;;;5033717;28;20447;-46
2022/03/29 04:13:22;;;;;;;38.60;24.47;;;;;;;;;;5033544;28;20427;-45
2022/03/29 04:15:49;;;;;;;39.60;25.20;;;;;;;;;;5033725;28;20412;-46
2022/03/29 04:18:15;;;;;;;43.30;25.30;;;;;;;;;;5033642;28;20403;-45
2022/03/29 04:20:41;;;;;;;44.00;24.70;;;;;;;;;;5033148;28;20953;-45
2022/03/29 04:23:07;;;;;;;41.23;25.30;;;;;;;;;;5032060;28;20460;-47
2022/03/29 04:25:34;;;;;;;42.43;25.23;;;;;;;;;;5031582;28;20769;-46
2022/03/29 04:28:00;;;;;;;42.00;24.10;;;;;;;;;;5032566;28;20395;-46
2022/03/29 04:30:26;;;;;;;42.63;25.80;;;;;;;;;;5033242;28;20399;-45
2022/03/29 04:32:53;;;;;;;47.23;27.20;;;;;;;;;;5033186;28;20427;-48
2022/03/29 04:35:18;;;;;;;39.83;24.53;;;;;;;;;;5033217;28;20830;-46
2022/03/29 04:37:44;;;;;;;43.93;25.60;;;;;;;;;;5033144;28;20488;-49
2022/03/29 04:40:11;;;;;;;44.53;26.70;;;;;;;;;;5032968;28;20396;-46
2022/03/29 04:42:47;;;;;;;47.20;28.03;;;;;;;;;;5032994;28;20457;-50
2022/03/29 04:45:14;;;;;;;47.92;28.70;;;;;;;;;;5033060;28;20426;-49
2022/03/29 04:47:43;;;;;;;51.30;29.80;;;;;;;;;;5033091;28;20653;-46
2022/03/29 04:50:10;;;;;;;49.83;29.40;;;;;;;;;;5032536;28;20793;-47
2022/03/29 04:52:37;;;;;;;49.87;28.80;;;;;;;;;;5032775;28;20218;-45
2022/03/29 04:55:04;;;;;;;49.43;29.10;;;;;;;;;;5032915;28;20416;-50
2022/03/29 04:57:30;;;;;;;52.07;27.70;;;;;;;;;;5032733;28;20911;-46
2022/03/29 04:59:57;;;;;;;52.17;29.67;;;;;;;;;;5032597;28;20399;-45
2022/03/29 05:02:23;;;;;;;43.33;27.83;;;;;;;;;;5032574;28;20608;-46
2022/03/29 05:04:50;;;;;;;49.33;27.67;;;;;;;;;;5032649;28;20164;-46
2022/03/29 05:07:16;;;;;;;50.13;29.90;;;;;;;;;;5032680;28;20464;-45
2022/03/29 05:09:42;;;;;;;46.60;28.57;;;;;;;;;;5032380;28;20176;-45
2022/03/29 05:12:08;;;;;;;54.40;30.30;;;;;;;;;;5032497;28;20418;-45
2022/03/29 05:14:34;;;;;;;49.60;30.03;;;;;;;;;;5032544;28;20394;-46
2022/03/29 05:17:00;;;;;;;55.97;30.50;;;;;;;;;;5032561;28;20902;-45
2022/03/29 05:19:27;;;;;;;46.20;29.05;;;;;;;;;;5032122;28;20429;-45
2022/03/29 05:21:52;;;;;;;52.92;31.70;;;;;;;;;;5032219;28;20218;-46
2022/03/29 05:24:19;;;;;;;51.73;31.00;;;;;;;;;;5032417;28;20640;-46
2022/03/29 05:26:45;;;;;;;51.05;29.88;;;;;;;;;;5032361;28;20493;-45
2022/03/29 05:29:14;;;;;;;49.00;29.47;;;;;;;;;;5032268;28;20267;-45
2022/03/29 05:31:41;;;;;;;51.00;29.83;;;;;;;;;;5031997;28;20413;-51
2022/03/29 05:34:07;;;;;;;56.30;30.50;;;;;;;;;;5032222;28;20430;-46
2022/03/29 05:36:33;;;;;;;57.43;32.07;;;;;;;;;;5032409;28;20300;-46
2022/03/29 05:38:59;;;;;;;58.90;32.60;;;;;;;;;;5032223;28;20402;-48
2022/03/29 05:41:25;;;;;;;56.70;32.60;;;;;;;;;;5031831;28;20536;-50
2022/03/29 05:43:51;;;;;;;57.87;33.30;;;;;;;;;;5031887;28;20422;-45
2022/03/29 05:49:02;;;;;;;58.92;32.30;;;;;;;;;;5032076;28;20611;-45
2022/03/29 05:51:29;;;;;;;59.80;32.85;;;;;;;;;;5031834;28;20226;-46
2022/03/29 05:53:56;;;;;;;61.63;34.15;;;;;;;;;;5031785;28;20536;-45
2022/03/29 05:56:23;;;;;;;58.80;32.03;;;;;;;;;;5031962;28;20175;-46
2022/03/29 05:58:50;;;;;;;57.45;31.70;;;;;;;;;;5031414;28;20246;-46
2022/03/29 06:01:16;;;;;;;61.67;32.83;;;;;;;;;;5031597;28;20259;-45
2022/03/29 06:03:42;;;;;;;64.73;35.40;;;;;;;;;;5031855;28;20870;-45
2022/03/29 06:06:08;;;;;;;64.60;34.07;;;;;;;;;;5031787;28;20399;-45
2022/03/29 06:08:35;;;;;;;64.47;33.88;;;;;;;;;;5031804;28;20425;-46
2022/03/29 06:11:01;;;;;;;62.17;33.90;;;;;;;;;;5031507;28;20166;-45
2022/03/29 06:13:27;;;;;;;71.07;35.60;;;;;;;;;;5031481;28;20187;-47
2022/03/29 06:15:53;;;;;;;66.75;33.92;;;;;;;;;;5031714;28;20414;-47
2022/03/29 06:18:20;;;;;;;68.05;35.60;;;;;;;;;;5031701;28;20167;-48
2022/03/29 06:20:46;;;;;;;64.37;34.53;;;;;;;;;;5031322;28;20270;-45
2022/03/29 06:23:12;;;;;;;64.60;34.33;;;;;;;;;;5031636;28;20915;-45
2022/03/29 06:25:38;;;;;;;65.38;34.53;;;;;;;;;;5031104;28;20839;-46
2022/03/29 06:28:04;;;;;;;64.93;35.10;;;;;;;;;;5031179;28;20160;-45
2022/03/29 06:30:30;;;;;;;65.83;35.30;;;;;;;;;;5030906;28;20396;-47
2022/03/29 06:32:56;;;;;;;66.50;35.40;;;;;;;;;;5030855;28;20774;-46
2022/03/29 06:35:25;;;;;;;70.93;35.80;;;;;;;;;;5031159;28;20403;-49
2022/03/29 06:37:51;;;;;;;70.00;34.30;;;;;;;;;;5030957;28;20834;-45
2022/03/29 06:40:17;;;;;;;66.03;36.20;;;;;;;;;;5030729;28;20490;-45
2022/03/29 06:42:43;;;;;;;66.97;36.77;;;;;;;;;;5030572;28;20502;-45
2022/03/29 06:45:10;;;;;;;68.60;35.73;;;;;;;;;;5031218;28;20402;-45
2022/03/29 06:47:36;;;;;;;66.67;34.63;;;;;;;;;;5025084;28;20938;-46
2022/03/29 06:50:04;;;;;;;66.17;34.90;;;;;;;;;;5031021;28;20457;-45
2022/03/29 06:52:41;;;;;;;63.30;37.17;;;;;;;;;;5030610;28;20445;-46
2022/03/29 06:55:07;;;;;;;60.73;33.00;;;;;;;;;;5030595;28;20896;-45
2022/03/29 06:57:33;;;;;;;66.30;36.80;;;;;;;;;;5030079;28;20395;-50
2022/03/29 06:59:59;;;;;;;71.00;36.50;;;;;;;;;;5030430;28;20399;-45
2022/03/29 07:02:26;;;;;;;69.23;36.43;;;;;;;;;;5031094;28;20980;-45
2022/03/29 07:04:53;;;;;;;74.03;36.93;;;;;;;;;;5031359;28;20728;-45
2022/03/29 07:07:19;;;;;;;68.27;35.07;;;;;;;;;;5031215;28;20396;-46
2022/03/29 07:12:34;;;;;;;70.33;37.17;;;;;;;;;;5034768;28;20562;-46
2022/03/29 07:15:00;;;;;;;65.13;35.70;;;;;;;;;;5034805;28;20779;-45
2022/03/29 07:17:26;;;;;;;66.67;35.60;;;;;;;;;;5034817;28;20411;-45
2022/03/29 07:19:52;;;;;;;65.93;36.93;;;;;;;;;;5034499;28;20812;-46
2022/03/29 07:22:18;;;;;;;66.27;37.73;;;;;;;;;;5034401;28;20459;-46
2022/03/29 07:24:44;;;;;;;66.83;35.00;;;;;;;;;;5034907;28;20913;-46
2022/03/29 07:27:10;;;;;;;64.87;35.83;;;;;;;;;;5034814;28;20461;-45
2022/03/29 07:29:38;;;;;;;69.73;37.73;;;;;;;;;;5034321;28;20397;-46
2022/03/29 07:32:04;;;;;;;65.83;36.40;;;;;;;;;;5034362;28;20435;-46
2022/03/29 07:34:35;;;;;;;65.03;35.57;;;;;;;;;;5034920;28;20405;-45
2022/03/29 07:37:02;;;;;;;74.27;36.23;;;;;;;;;;5034604;28;20860;-45
2022/03/29 07:39:28;;;;;;;63.07;35.00;;;;;;;;;;5034080;28;20463;-45
2022/03/29 07:41:55;;;;;;;79.03;40.17;;;;;;;;;;5034164;28;20463;-45
2022/03/29 07:44:21;;;;;;;65.00;35.07;;;;;;;;;;5034291;28;20396;-47
2022/03/29 07:46:47;;;;;;;70.23;35.80;;;;;;;;;;5034157;28;20909;-49
2022/03/29 07:49:13;;;;;;;82.87;36.93;;;;;;;;;;5033837;28;20520;-45
2022/03/29 07:51:39;;;;;;;63.30;35.20;;;;;;;;;;5034048;28;20395;-46
2022/03/29 07:54:05;;;;;;;80.23;35.70;;;;;;;;;;5034048;28;20899;-46
2022/03/29 07:56:31;;;;;;;82.27;40.10;;;;;;;;;;5034060;28;20411;-49
2022/03/29 07:58:57;;;;;;;72.53;37.27;;;;;;;;;;5033991;28;20398;-46
2022/03/29 08:01:23;;;;;;;73.17;38.23;;;;;;;;;;5033669;28;21032;-46
2022/03/29 08:03:49;;;;;;;72.80;36.57;;;;;;;;;;5033707;28;20510;-47
2022/03/29 08:06:15;;;;;;;74.43;38.70;;;;;;;;;;5033960;28;20423;-46
2022/03/29 08:08:41;;;;;;;76.30;37.83;;;;;;;;;;5033836;28;20414;-46
2022/03/29 08:11:08;;;;;;;72.97;37.50;;;;;;;;;;5033590;28;20417;-46
2022/03/29 08:13:34;;;;;;;77.47;38.10;;;;;;;;;;5034005;28;20425;-45
2022/03/29 08:16:04;;;;;;;76.40;36.53;;;;;;;;;;5033692;28;20409;-45
2022/03/29 08:18:31;;;;;;;81.90;38.97;;;;;;;;;;5033633;28;20409;-45
2022/03/29 08:20:56;;;;;;;67.30;36.50;;;;;;;;;;5032917;28;20539;-45
2022/03/29 08:23:23;;;;;;;72.70;39.40;;;;;;;;;;5033397;28;20453;-45
2022/03/29 08:25:49;;;;;;;77.37;36.93;;;;;;;;;;5033457;28;20404;-45
2022/03/29 08:28:16;;;;;;;72.10;37.23;;;;;;;;;;5032934;28;20425;-45
2022/03/29 08:30:43;;;;;;;71.40;38.87;;;;;;;;;;5033068;28;20921;-45
2022/03/29 08:33:10;;;;;;;69.00;37.80;;;;;;;;;;5032612;28;20533;-45
2022/03/29 08:35:39;;;;;;;70.80;37.43;;;;;;;;;;5032689;28;20437;-45
2022/03/29 08:38:06;;;;;;;69.30;36.10;;;;;;;;;;5029737;28;20782;-46
2022/03/29 08:40:32;;;;;;;69.97;36.00;;;;;;;;;;5032698;28;20418;-45
2022/03/29 08:43:00;;;;;;;63.43;35.80;;;;;;;;;;5032945;28;20447;-45
2022/03/29 08:45:27;;;;;;;64.60;34.97;;;;;;;;;;5031982;28;20995;-45
2022/03/29 08:47:56;;;;;;;61.23;34.77;;;;;;;;;;5028858;28;20426;-47
2022/03/29 08:50:23;;;;;;;68.17;36.93;;;;;;;;;;5032665;28;20437;-45
2022/03/29 08:52:51;;;;;;;68.27;37.63;;;;;;;;;;5032455;28;20532;-47
2022/03/29 08:55:17;;;;;;;66.13;34.80;;;;;;;;;;5033291;28;20485;-45
2022/03/29 08:57:43;;;;;;;57.87;33.57;;;;;;;;;;5032467;28;20860;-45
2022/03/29 09:00:09;;;;;;;63.40;35.90;;;;;;;;;;5032409;28;20437;-46
2022/03/29 09:02:37;;;;;;;61.77;35.63;;;;;;;;;;5032025;28;20547;-48
2022/03/29 09:05:07;;;;;;;61.77;35.33;;;;;;;;;;5030577;28;21013;-46
2022/03/29 09:07:48;;;;;;;57.93;34.40;;;;;;;;;;5026652;28;20462;-46
2022/03/29 09:10:15;;;;;;;61.13;33.20;;;;;;;;;;5032355;28;20398;-47
2022/03/29 09:12:41;;;;;;;62.70;34.83;;;;;;;;;;5030406;28;20445;-48
2022/03/29 09:15:08;;;;;;;60.00;34.37;;;;;;;;;;5032136;28;20406;-48
2022/03/29 09:17:38;;;;;;;69.70;35.97;;;;;;;;;;5030938;28;20414;-46
2022/03/29 09:20:10;;;;;;;61.20;36.73;;;;;;;;;;5032320;28;20883;-46
2022/03/29 09:22:36;;;;;;;65.33;37.07;;;;;;;;;;5031718;28;20548;-46
2022/03/29 09:25:02;;;;;;;63.73;36.30;;;;;;;;;;5032302;28;20832;-46
2022/03/29 09:27:28;;;;;;;61.80;35.83;;;;;;;;;;5032098;28;20505;-48
2022/03/29 09:30:11;;;;;;;59.30;34.37;;;;;;;;;;5031989;28;20497;-46
2022/03/29 09:32:51;;;;;;;62.90;36.30;;;;;;;;;;5031548;28;20445;-45
2022/03/29 09:35:17;;;;;;;57.63;34.57;;;;;;;;;;5032301;28;20976;-46
2022/03/29 09:37:45;;;;;;;64.07;36.77;;;;;;;;;;5031953;28;20418;-46
2022/03/29 09:40:12;;;;;;;62.53;36.50;;;;;;;;;;5031538;28;20418;-46
2022/03/29 09:42:39;;;;;;;57.27;33.40;;;;;;;;;;5031656;28;20494;-46
2022/03/29 09:45:05;;;;;;;59.33;33.97;;;;;;;;;;5031587;28;20418;-46
2022/03/29 09:47:34;;;;;;;68.63;37.33;;;;;;;;;;5030758;28;20413;-45
2022/03/29 09:50:06;;;;;;;59.27;35.30;;;;;;;;;;5030135;28;20441;-45
2022/03/29 09:52:39;;;;;;;59.43;33.70;;;;;;;;;;5031623;28;20942;-46
2022/03/29 09:55:09;;;;;;;68.73;36.87;;;;;;;;;;5030596;28;20891;-46
2022/03/29 09:57:41;;;;;;;64.40;36.17;;;;;;;;;;5032097;28;20453;-50
2022/03/29 10:00:08;;;;;;;62.67;33.60;;;;;;;;;;5031579;28;20533;-45
2022/03/29 10:02:36;;;;;;;62.17;34.10;;;;;;;;;;5031516;28;20461;-48
2022/03/29 10:05:03;;;;;;;65.57;37.03;;;;;;;;;;5032246;28;20410;-47
2022/03/29 10:07:32;;;;;;;58.83;34.60;;;;;;;;;;5047105;28;20472;-46
2022/03/29 10:09:58;;;;;;;60.43;35.53;;;;;;;;;;5043304;28;20415;-50
2022/03/29 10:12:25;;;;;;;65.90;36.47;;;;;;;;;;5031467;28;20497;-45
2022/03/29 10:14:51;;;;;;;64.27;36.57;;;;;;;;;;5031109;28;20518;-49
2022/03/29 10:17:18;;;;;;;61.67;36.57;;;;;;;;;;5031449;28;20414;-46
2022/03/29 10:19:44;;;;;;;55.80;33.80;;;;;;;;;;5031611;28;20436;-46
2022/03/29 10:22:13;;;;;;;53.50;32.80;;;;;;;;;;5025607;28;20489;-46
2022/03/29 10:24:39;;;;;;;62.97;34.60;;;;;;;;;;5012041;28;20407;-48
2022/03/29 10:27:05;;;;;;;57.53;32.90;;;;;;;;;;5011888;28;20414;-45
2022/03/29 10:29:32;;;;;;;55.77;32.90;;;;;;;;;;5011770;28;20454;-49
2022/03/29 10:32:00;;;;;;;59.53;32.80;;;;;;;;;;5011759;28;20894;-45
2022/03/29 10:34:30;;;;;;;52.07;31.53;;;;;;;;;;5015795;28;20415;-46
2022/03/29 10:36:59;;;;;;;62.93;33.03;;;;;;;;;;5030549;28;20882;-46
2022/03/29 10:39:45;;;;;;;60.30;34.80;;;;;;;;;;5031305;28;20407;-46
2022/03/29 10:42:24;;;;;;;50.23;30.70;;;;;;;;;;5031248;28;20515;-48
2022/03/29 10:45:00;;;;;;;54.53;31.37;;;;;;;;;;5033554;28;20402;-46
2022/03/29 10:47:27;;;;;;;62.13;33.87;;;;;;;;;;5035404;28;20398;-46
2022/03/29 10:49:53;;;;;;;60.83;32.57;;;;;;;;;;5034491;28;20446;-48
2022/03/29 10:52:22;;;;;;;58.50;32.63;;;;;;;;;;5039065;28;21070;-50
2022/03/29 10:54:48;;;;;;;60.90;34.00;;;;;;;;;;5037804;28;20430;-46
2022/03/29 10:57:24;;;;;;;59.73;33.53;;;;;;;;;;5037756;28;20504;-47
2022/03/29 10:59:51;;;;;;;62.73;35.17;;;;;;;;;;5032732;28;20444;-47
2022/03/29 11:02:19;;;;;;;58.03;36.03;;;;;;;;;;5032837;28;20898;-47
2022/03/29 11:05:02;;;;;;;64.03;35.70;;;;;;;;;;5033689;28;20414;-45
2022/03/29 11:07:30;;;;;;;60.43;35.90;;;;;;;;;;5034309;28;20373;-47
2022/03/29 11:10:15;;;;;;;61.67;35.77;;;;;;;;;;5033643;28;20416;-45
2022/03/29 11:12:40;;;;;;;62.57;36.07;;;;;;;;;;5034279;28;20969;-48
2022/03/29 11:15:25;;;;;;;62.13;37.70;;;;;;;;;;5034575;28;20514;-50
2022/03/29 11:17:54;;;;;;;60.57;35.23;;;;;;;;;;5034774;28;20407;-49
2022/03/29 11:20:39;;;;;;;63.63;35.90;;;;;;;;;;5034414;28;20418;-46
2022/03/29 11:23:10;;;;;;;64.03;34.20;;;;;;;;;;5034483;28;20821;-48
2022/03/29 11:25:40;;;;;;;59.93;35.20;;;;;;;;;;5033026;28;20415;-46
2022/03/29 11:28:07;;;;;;;59.20;34.20;;;;;;;;;;5034504;28;20395;-48
2022/03/29 11:30:34;;;;;;;53.47;33.27;;;;;;;;;;5034181;28;20406;-45
2022/03/29 11:33:01;;;;;;;63.40;32.03;;;;;;;;;;5034199;28;20434;-50
2022/03/29 11:35:27;;;;;;;57.40;33.97;;;;;;;;;;5034169;28;20442;-45
2022/03/29 11:37:53;;;;;;;56.53;33.90;;;;;;;;;;5034157;28;20879;-45
2022/03/29 11:40:21;;;;;;;61.57;36.00;;;;;;;;;;5034052;28;20403;-46
2022/03/29 11:42:53;;;;;;;60.83;36.07;;;;;;;;;;5034123;28;20541;-49
2022/03/29 11:45:23;;;;;;;59.47;34.50;;;;;;;;;;5033822;28;20445;-49
2022/03/29 11:47:53;;;;;;;53.33;32.73;;;;;;;;;;5034279;28;20402;-48
2022/03/29 11:50:39;;;;;;;64.37;35.87;;;;;;;;;;5033410;28;20422;-48
2022/03/29 11:53:20;;;;;;;62.83;34.10;;;;;;;;;;5033776;28;20495;-46
2022/03/29 11:55:53;;;;;;;53.90;33.30;;;;;;;;;;5033366;28;20409;-46
2022/03/29 11:58:21;;;;;;;61.50;35.67;;;;;;;;;;5033847;28;20465;-45
2022/03/29 12:00:47;;;;;;;63.03;35.73;;;;;;;;;;5031964;28;20806;-45
2022/03/29 12:03:13;;;;;;;72.47;38.80;;;;;;;;;;5032653;28;20435;-46
2022/03/29 12:05:39;;;;;;;80.83;42.30;;;;;;;;;;5033554;28;20502;-46
2022/03/29 12:08:05;;;;;;;93.77;44.80;;;;;;;;;;5032991;28;20929;-46
2022/03/29 12:10:34;;;;;;;83.13;43.17;;;;;;;;;;5033143;28;20537;-46
2022/03/29 12:13:01;;;;;;;92.80;47.23;;;;;;;;;;5033547;28;20510;-50
2022/03/29 12:15:27;;;;;;;98.60;46.60;;;;;;;;;;5033717;28;20456;-50
2022/03/29 12:18:40;;;;;;;109.93;52.53;;;;;;;;;;5017401;28;20999;-46
2022/03/29 12:20:43;;;;;;;105.90;45.70;;;;;;;;;;5013414;28;20419;-45
2022/03/29 12:23:16;;;;;;;108.67;51.90;;;;;;;;;;5024185;28;20596;-48
2022/03/29 12:25:43;;;;;;;103.07;50.10;;;;;;;;;;5028197;28;20407;-47
2022/03/29 12:28:09;;;;;;;107.03;48.97;;;;;;;;;;5013613;28;20410;-46
2022/03/29 12:30:35;;;;;;;100.97;49.73;;;;;;;;;;5024317;28;20398;-46
2022/03/29 12:33:01;;;;;;;99.50;50.20;;;;;;;;;;5033228;28;20423;-46
2022/03/29 12:35:30;;;;;;;107.57;52.33;;;;;;;;;;5033188;28;20403;-45
2022/03/29 12:38:06;;;;;;;101.90;53.40;;;;;;;;;;5033346;28;20407;-46
2022/03/29 12:40:33;;;;;;;107.47;51.83;;;;;;;;;;5032882;28;20396;-45
2022/03/29 12:43:03;;;;;;;105.93;52.60;;;;;;;;;;5030613;28;20752;-47
2022/03/29 12:45:29;;;;;;;103.10;51.20;;;;;;;;;;5032263;28;20758;-45
2022/03/29 12:47:55;;;;;;;93.47;49.23;;;;;;;;;;5032681;28;20425;-46
2022/03/29 12:50:21;;;;;;;83.97;46.70;;;;;;;;;;5032729;28;20480;-45
2022/03/29 12:52:47;;;;;;;85.13;45.17;;;;;;;;;;5032597;28;20440;-46
2022/03/29 12:55:18;;;;;;;91.40;47.57;;;;;;;;;;5032689;28;20404;-46
2022/03/29 12:57:45;;;;;;;82.33;45.07;;;;;;;;;;5012946;28;20389;-49
2022/03/29 13:00:14;;;;;;;70.63;41.87;;;;;;;;;;5029405;28;20421;-45
2022/03/29 13:02:43;;;;;;;75.87;41.03;;;;;;;;;;5032086;28;21031;-46
2022/03/29 13:05:09;;;;;;;63.83;36.73;;;;;;;;;;5032702;28;20404;-48
2022/03/29 13:07:54;;;;;;;72.40;41.20;;;;;;;;;;5031642;28;20450;-47
2022/03/29 13:10:24;;;;;;;65.43;38.40;;;;;;;;;;5025101;28;20420;-51
2022/03/29 13:12:59;;;;;;;61.73;34.97;;;;;;;;;;5032536;28;20423;-52
2022/03/29 13:15:44;;;;;;;57.10;35.93;;;;;;;;;;5031854;28;20476;-52
2022/03/29 13:18:37;;;;;;;59.63;33.73;;;;;;;;;;5032510;28;20412;-52
2022/03/29 13:21:08;;;;;;;61.70;34.77;;;;;;;;;;5031866;28;20463;-46
2022/03/29 13:23:50;;;;;;;51.60;32.90;;;;;;;;;;5032174;28;20451;-47
2022/03/29 13:26:20;;;;;;;57.23;34.20;;;;;;;;;;5032663;28;20421;-50
2022/03/29 13:28:47;;;;;;;59.57;31.93;;;;;;;;;;5031856;28;21115;-50
2022/03/29 13:31:14;;;;;;;53.83;32.60;;;;;;;;;;5031585;28;20443;-50
2022/03/29 13:33:41;;;;;;;50.70;30.37;;;;;;;;;;5031688;28;20459;-50
2022/03/29 13:36:09;;;;;;;49.30;28.80;;;;;;;;;;5031905;28;20417;-48
2022/03/29 13:38:35;;;;;;;44.63;28.43;;;;;;;;;;5032153;28;20372;-49
2022/03/29 13:41:01;;;;;;;49.43;31.87;;;;;;;;;;5031612;28;20479;-50
2022/03/29 13:43:27;;;;;;;50.50;29.40;;;;;;;;;;5031762;28;20899;-51
2022/03/29 13:45:53;;;;;;;34.80;25.40;;;;;;;;;;5031813;28;20452;-50
2022/03/29 13:48:19;;;;;;;40.47;27.40;;;;;;;;;;5031665;28;20428;-49
2022/03/29 13:50:45;;;;;;;46.97;27.93;;;;;;;;;;5031424;28;20414;-50
2022/03/29 13:53:11;;;;;;;45.70;27.43;;;;;;;;;;5032091;28;20417;-49
2022/03/29 13:55:37;;;;;;;38.17;25.13;;;;;;;;;;5031473;28;20393;-49
2022/03/29 13:58:04;;;;;;;38.43;24.63;;;;;;;;;;5030476;28;20922;-50
2022/03/29 14:00:34;;;;;;;35.37;24.37;;;;;;;;;;5031504;28;20398;-49
2022/03/29 14:03:01;;;;;;;33.07;23.97;;;;;;;;;;5031147;28;20438;-50
2022/03/29 14:05:28;;;;;;;33.03;24.57;;;;;;;;;;5031589;28;20420;-49
2022/03/29 14:07:55;;;;;;;35.10;24.30;;;;;;;;;;5029969;28;20415;-50
2022/03/29 14:10:21;;;;;;;36.07;24.67;;;;;;;;;;5031537;28;20920;-46
2022/03/29 14:12:47;;;;;;;39.33;25.00;;;;;;;;;;5031175;28;20898;-46
2022/03/29 14:15:13;;;;;;;41.60;25.57;;;;;;;;;;5031876;28;20429;-46
2022/03/29 14:17:39;;;;;;;39.50;24.30;;;;;;;;;;5031656;28;20463;-51
2022/03/29 14:20:06;;;;;;;39.93;26.13;;;;;;;;;;5034159;28;20413;-51
2022/03/29 14:22:34;;;;;;;37.43;25.10;;;;;;;;;;5035286;28;20966;-46
2022/03/29 14:25:00;;;;;;;46.63;25.33;;;;;;;;;;5035665;28;20412;-46
2022/03/29 14:27:26;;;;;;;36.83;25.50;;;;;;;;;;5035310;28;20799;-46
2022/03/29 14:29:52;;;;;;;33.40;24.30;;;;;;;;;;5035636;28;20821;-46